createdAt,value
2018-06-15T00:00:59.479Z,64.73
2018-06-15T00:03:27.647Z,64.80
2018-06-15T00:05:55.856Z,63.33
2018-06-15T00:08:25.059Z,63.24
2018-06-15T00:10:53.331Z,63.01
2018-06-15T00:13:21.397Z,62.23
2018-06-15T00:15:49.803Z,63.05
2018-06-15T00:18:18.050Z,62.66
2018-06-15T00:20:46.190Z,62.73
2018-06-15T00:23:14.347Z,63.85
2018-06-15T00:25:42.426Z,63.28
2018-06-15T00:28:10.521Z,64.13
2018-06-15T00:30:38.738Z,65.44
2018-06-15T00:33:06.933Z,63.56
2018-06-15T00:35:35.345Z,63.75
2018-06-15T00:38:03.543Z,63.87
2018-06-15T00:40:31.841Z,63.92
2018-06-15T00:43:00.097Z,63.64
2018-06-15T00:45:28.271Z,62.62
2018-06-15T00:47:58.414Z,62.77
2018-06-15T00:50:26.717Z,62.76
2018-06-15T00:52:54.774Z,62.99
2018-06-15T00:55:23.909Z,63.27
2018-06-15T00:57:51.980Z,62.39
2018-06-15T01:00:20.060Z,62.36
2018-06-15T01:02:48.343Z,61.91
2018-06-15T01:05:16.549Z,62.62
2018-06-15T01:07:44.656Z,62.71
2018-06-15T01:10:12.803Z,62.61
2018-06-15T01:12:40.836Z,62.87
2018-06-15T01:15:10.031Z,62.49
2018-06-15T01:17:38.552Z,64.60
2018-06-15T01:20:06.652Z,65.22
2018-06-15T01:22:34.725Z,65.09
2018-06-15T01:25:03.110Z,65.60
2018-06-15T01:27:31.232Z,64.83
2018-06-15T01:29:59.296Z,63.41
2018-06-15T01:32:27.391Z,63.03
2018-06-15T01:34:55.452Z,62.98
2018-06-15T01:37:23.579Z,64.33
2018-06-15T01:39:51.912Z,64.18
2018-06-15T01:42:20.060Z,66.59
2018-06-15T01:44:48.265Z,65.63
2018-06-15T01:47:16.332Z,64.45
2018-06-15T01:49:44.447Z,66.04
2018-06-15T01:52:13.523Z,66.45
2018-06-15T01:54:41.645Z,65.09
2018-06-15T01:57:09.885Z,66.30
2018-06-15T01:59:38.004Z,65.91
2018-06-15T02:02:06.154Z,65.28
2018-06-15T02:04:34.348Z,65.67
2018-06-15T02:07:02.470Z,66.99
2018-06-15T02:09:30.564Z,66.17
2018-06-15T02:11:58.838Z,66.67
2018-06-15T02:14:30.921Z,66.05
2018-06-15T02:17:10.943Z,66.12
2018-06-15T02:19:39.719Z,66.08
2018-06-15T02:22:07.923Z,66.11
2018-06-15T02:24:36.152Z,66.06
2018-06-15T02:27:04.416Z,66.07
2018-06-15T02:29:32.655Z,67.58
2018-06-15T02:32:00.727Z,67.91
2018-06-15T02:34:29.143Z,68.08
2018-06-15T02:36:57.268Z,66.90
2018-06-15T02:39:25.369Z,66.93
2018-06-15T02:41:53.599Z,69.18
2018-06-15T02:44:22.249Z,69.97
2018-06-15T02:46:51.414Z,69.94
2018-06-15T02:49:19.668Z,67.24
2018-06-15T02:51:47.823Z,68.69
2018-06-15T02:54:16.255Z,69.11
2018-06-15T02:56:44.564Z,68.61
2018-06-15T02:59:13.638Z,68.66
2018-06-15T03:01:41.750Z,67.70
2018-06-15T03:04:09.955Z,67.96
2018-06-15T03:06:38.095Z,67.80
2018-06-15T03:09:06.494Z,67.81
2018-06-15T03:11:34.676Z,66.85
2018-06-15T03:14:02.742Z,67.44
2018-06-15T03:16:31.008Z,68.27
2018-06-15T03:18:59.225Z,66.43
2018-06-15T03:21:27.356Z,67.28
2018-06-15T03:23:55.810Z,66.72
2018-06-15T03:26:24.033Z,67.00
2018-06-15T03:28:52.930Z,67.69
2018-06-15T03:31:21.652Z,68.55
2018-06-15T03:33:50.266Z,66.98
2018-06-15T03:36:18.568Z,66.66
2018-06-15T03:38:46.686Z,66.54
2018-06-15T03:41:14.910Z,67.37
2018-06-15T03:43:43.052Z,66.46
2018-06-15T03:46:11.172Z,67.23
2018-06-15T03:48:39.378Z,67.51
2018-06-15T03:51:07.463Z,66.78
2018-06-15T03:53:35.671Z,66.46
2018-06-15T03:56:03.792Z,67.30
2018-06-15T03:58:32.086Z,67.44
2018-06-15T04:01:00.204Z,66.15
2018-06-15T04:03:28.296Z,65.93
2018-06-15T04:05:56.829Z,66.17
2018-06-15T04:08:25.135Z,67.38
2018-06-15T04:10:53.271Z,66.58
2018-06-15T04:13:21.389Z,66.05
2018-06-15T04:15:49.646Z,66.75
2018-06-15T04:18:17.764Z,66.25
2018-06-15T04:20:46.137Z,67.65
2018-06-15T04:23:14.317Z,67.78
2018-06-15T04:25:42.400Z,66.24
2018-06-15T04:28:10.637Z,65.63
2018-06-15T04:30:38.944Z,65.76
2018-06-15T04:33:07.086Z,66.82
2018-06-15T04:35:35.310Z,66.24
2018-06-15T04:38:03.498Z,66.12
2018-06-15T04:40:31.638Z,68.68
2018-06-15T04:42:59.796Z,68.67
2018-06-15T04:45:28.775Z,68.74
2018-06-15T04:47:56.919Z,69.11
2018-06-15T04:50:25.036Z,70.11
2018-06-15T04:52:53.428Z,68.83
2018-06-15T04:55:21.568Z,68.31
2018-06-15T04:57:49.657Z,67.88
2018-06-15T05:00:17.781Z,67.19
2018-06-15T05:02:46.006Z,68.72
2018-06-15T05:05:14.104Z,68.34
2018-06-15T05:07:42.415Z,69.03
2018-06-15T05:10:10.528Z,69.37
2018-06-15T05:12:38.703Z,69.37
2018-06-15T05:15:06.831Z,70.19
2018-06-15T05:17:35.094Z,68.86
2018-06-15T05:20:03.267Z,69.93
2018-06-15T05:22:31.585Z,69.74
2018-06-15T05:25:00.109Z,69.43
2018-06-15T05:27:28.293Z,69.14
2018-06-15T05:29:56.459Z,68.98
2018-06-15T05:32:24.562Z,69.98
2018-06-15T05:34:52.954Z,70.60
2018-06-15T05:37:21.179Z,70.00
2018-06-15T05:39:49.462Z,69.80
2018-06-15T05:42:17.618Z,71.11
2018-06-15T05:44:45.810Z,69.62
2018-06-15T05:47:13.943Z,70.17
2018-06-15T05:49:42.036Z,70.10
2018-06-15T05:52:10.211Z,70.01
2018-06-15T05:54:38.436Z,70.71
2018-06-15T05:57:06.995Z,70.43
2018-06-15T05:59:35.939Z,68.93
2018-06-15T06:02:04.208Z,69.41
2018-06-15T06:04:33.062Z,70.17
2018-06-15T06:07:01.391Z,68.80
2018-06-15T06:09:29.692Z,68.36
2018-06-15T06:11:57.784Z,66.70
2018-06-15T06:14:26.044Z,66.39
2018-06-15T06:16:54.319Z,66.67
2018-06-15T06:19:23.284Z,65.32
2018-06-15T06:21:51.381Z,67.21
2018-06-15T06:24:19.778Z,67.92
2018-06-15T06:26:48.008Z,67.50
2018-06-15T06:29:16.324Z,67.19
2018-06-15T06:31:44.659Z,66.56
2018-06-15T06:34:12.750Z,65.82
2018-06-15T06:36:40.939Z,65.96
2018-06-15T06:39:11.368Z,66.57
2018-06-15T06:41:39.734Z,65.75
2018-06-15T06:44:08.016Z,64.82
2018-06-15T06:46:36.387Z,64.17
2018-06-15T06:49:04.671Z,63.46
2018-06-15T06:51:32.849Z,63.72
2018-06-15T06:54:01.091Z,64.80
2018-06-15T06:56:29.232Z,64.32
2018-06-15T06:58:57.495Z,64.11
2018-06-15T07:01:25.636Z,64.04
2018-06-15T07:03:53.771Z,63.22
2018-06-15T07:06:21.970Z,63.53
2018-06-15T07:08:50.091Z,63.59
2018-06-15T07:11:18.669Z,62.69
2018-06-15T07:13:46.780Z,63.00
2018-06-15T07:16:15.030Z,62.22
2018-06-15T07:18:43.209Z,61.77
2018-06-15T07:21:11.401Z,61.91
2018-06-15T07:23:39.590Z,61.74
2018-06-15T07:26:07.667Z,61.43
2018-06-15T07:28:36.417Z,60.95
2018-06-15T07:31:04.555Z,60.77
2018-06-15T07:33:32.788Z,61.28
2018-06-15T07:36:00.860Z,62.08
2018-06-15T07:38:29.194Z,61.86
2018-06-15T07:40:57.317Z,60.62
2018-06-15T07:43:25.459Z,61.11
2018-06-15T07:45:53.631Z,60.91
2018-06-15T07:48:22.024Z,61.02
2018-06-15T07:50:50.131Z,61.09
2018-06-15T07:53:18.202Z,59.21
2018-06-15T07:55:46.511Z,61.35
2018-06-15T07:58:14.636Z,60.43
2018-06-15T08:00:42.820Z,59.74
2018-06-15T08:03:11.323Z,59.15
2018-06-15T08:05:39.423Z,57.69
2018-06-15T08:08:07.534Z,56.14
2018-06-15T08:10:36.876Z,55.50
2018-06-15T08:13:05.070Z,55.35
2018-06-15T08:15:34.371Z,54.84
2018-06-15T08:18:04.976Z,54.50
2018-06-15T08:20:33.056Z,54.81
2018-06-15T08:23:01.107Z,53.82
2018-06-15T08:25:29.214Z,55.08
2018-06-15T08:27:57.271Z,54.30
2018-06-15T08:30:25.333Z,54.31
2018-06-15T08:32:54.453Z,54.61
2018-06-15T08:35:29.821Z,53.23
2018-06-15T08:38:00.018Z,53.56
2018-06-15T08:40:42.574Z,52.64
2018-06-15T08:43:11.452Z,52.79
2018-06-15T08:45:39.753Z,53.74
2018-06-15T08:48:07.891Z,54.41
2018-06-15T08:50:36.063Z,54.02
2018-06-15T08:53:04.207Z,54.37
2018-06-15T08:55:32.616Z,52.63
2018-06-15T08:58:00.758Z,51.93
2018-06-15T09:00:29.009Z,52.06
2018-06-15T09:02:57.263Z,51.55
2018-06-15T09:05:26.052Z,52.45
2018-06-15T09:07:54.355Z,51.86
2018-06-15T09:10:22.919Z,52.16
2018-06-15T09:12:50.999Z,51.57
2018-06-15T09:15:19.155Z,51.02
2018-06-15T09:17:47.254Z,51.49
2018-06-15T09:20:15.557Z,50.81
2018-06-15T09:22:43.659Z,51.32
2018-06-15T09:25:11.772Z,53.05
2018-06-15T09:27:40.028Z,52.74
2018-06-15T09:30:08.250Z,51.71
2018-06-15T09:32:36.777Z,51.68
2018-06-15T09:35:05.157Z,51.67
2018-06-15T09:37:33.234Z,51.64
2018-06-15T09:40:01.316Z,51.02
2018-06-15T09:42:29.579Z,50.89
2018-06-15T09:44:58.275Z,50.71
2018-06-15T09:47:26.445Z,48.54
2018-06-15T09:49:54.763Z,48.14
2018-06-15T09:52:23.012Z,48.01
2018-06-15T09:54:51.148Z,48.64
2018-06-15T09:57:19.259Z,49.55
2018-06-15T09:59:47.535Z,47.53
2018-06-15T10:02:15.695Z,47.59
2018-06-15T10:04:43.863Z,46.50
2018-06-15T10:07:12.056Z,46.39
2018-06-15T10:09:40.247Z,46.40
2018-06-15T10:12:08.412Z,47.62
2018-06-15T10:14:36.647Z,47.05
2018-06-15T10:17:05.097Z,46.83
2018-06-15T10:19:34.390Z,47.59
2018-06-15T10:22:04.343Z,47.87
2018-06-15T10:24:32.453Z,47.50
2018-06-15T10:27:00.607Z,47.42
2018-06-15T10:29:28.755Z,46.55
2018-06-15T10:31:57.044Z,47.13
2018-06-15T10:34:25.234Z,46.83
2018-06-15T10:36:54.495Z,47.02
2018-06-15T10:39:23.506Z,46.41
2018-06-15T10:41:51.606Z,47.88
2018-06-15T10:44:19.699Z,48.42
2018-06-15T10:46:47.833Z,47.95
2018-06-15T10:49:16.086Z,48.36
2018-06-15T10:51:44.242Z,47.77
2018-06-15T10:54:12.311Z,49.06
2018-06-15T10:56:41.603Z,48.12
2018-06-15T10:59:09.775Z,48.23
2018-06-15T11:01:38.448Z,48.81
2018-06-15T11:04:06.532Z,49.02
2018-06-15T11:06:34.617Z,48.85
2018-06-15T11:09:02.839Z,49.08
2018-06-15T11:11:31.065Z,50.03
2018-06-15T11:13:59.883Z,50.94
2018-06-15T11:16:28.007Z,49.52
2018-06-15T11:18:56.244Z,48.94
2018-06-15T11:21:24.607Z,49.73
2018-06-15T11:23:52.656Z,50.83
2018-06-15T11:26:20.718Z,49.94
2018-06-15T11:28:48.830Z,49.64
2018-06-15T11:31:17.136Z,49.88
2018-06-15T11:33:45.399Z,50.18
2018-06-15T11:36:13.498Z,49.90
2018-06-15T11:38:42.617Z,49.75
2018-06-15T11:41:11.037Z,49.79
2018-06-15T11:43:39.055Z,50.46
2018-06-15T11:46:08.215Z,49.84
2018-06-15T11:48:36.678Z,49.95
2018-06-15T11:51:04.770Z,50.58
2018-06-15T11:53:32.866Z,49.49
2018-06-15T11:56:01.011Z,49.53
2018-06-15T11:58:29.154Z,49.54
2018-06-15T12:00:57.744Z,49.95
2018-06-15T12:03:25.868Z,50.27
2018-06-15T12:05:54.949Z,50.42
2018-06-15T12:08:23.123Z,50.73
2018-06-15T12:10:51.219Z,50.31
2018-06-15T12:13:19.455Z,51.59
2018-06-15T12:15:47.704Z,52.02
2018-06-15T12:18:15.878Z,51.18
2018-06-15T12:20:44.163Z,51.49
2018-06-15T12:23:12.319Z,52.05
2018-06-15T12:25:40.749Z,50.78
2018-06-15T12:28:08.978Z,50.94
2018-06-15T12:30:37.261Z,52.04
2018-06-15T12:33:05.517Z,52.90
2018-06-15T12:35:33.980Z,52.80
2018-06-15T12:38:02.142Z,51.47
2018-06-15T12:40:30.241Z,51.60
2018-06-15T12:42:58.647Z,52.69
2018-06-15T12:45:26.831Z,52.27
2018-06-15T12:47:55.147Z,51.43
2018-06-15T12:50:23.767Z,50.79
2018-06-15T12:52:52.100Z,51.04
2018-06-15T12:55:20.425Z,50.75
2018-06-15T12:57:48.657Z,50.55
2018-06-15T13:00:16.814Z,50.76
2018-06-15T13:02:44.885Z,49.80
2018-06-15T13:05:13.160Z,49.96
2018-06-15T13:07:41.267Z,49.56
2018-06-15T13:10:09.394Z,47.81
2018-06-15T13:12:37.556Z,47.94
2018-06-15T13:15:05.723Z,48.06
2018-06-15T13:17:33.939Z,48.06
2018-06-15T13:20:02.107Z,47.98
2018-06-15T13:22:30.174Z,47.56
2018-06-15T13:24:58.474Z,47.92
2018-06-15T13:27:26.588Z,47.79
2018-06-15T13:29:55.648Z,46.38
2018-06-15T13:32:24.489Z,47.00
2018-06-15T13:34:52.608Z,47.76
2018-06-15T13:37:20.744Z,46.91
2018-06-15T13:39:48.926Z,46.27
2018-06-15T13:42:17.085Z,47.01
2018-06-15T13:44:45.277Z,47.02
2018-06-15T13:47:13.467Z,46.39
2018-06-15T13:49:41.583Z,47.14
2018-06-15T13:52:09.847Z,47.18
2018-06-15T13:54:38.043Z,45.94
2018-06-15T13:57:06.133Z,47.53
2018-06-15T13:59:34.243Z,46.42
2018-06-15T14:02:02.344Z,46.54
2018-06-15T14:04:30.450Z,46.71
2018-06-15T14:06:59.785Z,46.82
2018-06-15T14:09:27.997Z,45.65
2018-06-15T14:11:56.127Z,47.43
2018-06-15T14:14:24.277Z,46.74
2018-06-15T14:16:53.225Z,46.15
2018-06-15T14:19:22.093Z,45.88
2018-06-15T14:21:51.841Z,45.29
2018-06-15T14:24:20.147Z,45.87
2018-06-15T14:26:48.627Z,46.35
2018-06-15T14:29:17.100Z,46.33
2018-06-15T14:31:45.380Z,45.82
2018-06-15T14:34:13.478Z,45.08
2018-06-15T14:36:41.617Z,44.20
2018-06-15T14:39:11.004Z,43.85
2018-06-15T14:41:39.107Z,43.42
2018-06-15T14:44:07.342Z,44.11
2018-06-15T14:46:37.199Z,44.46
2018-06-15T14:49:05.338Z,44.13
2018-06-15T14:51:33.444Z,43.85
2018-06-15T14:54:01.522Z,44.27
2018-06-15T14:56:29.618Z,44.66
2018-06-15T14:58:57.702Z,45.31
2018-06-15T15:01:25.869Z,43.71
2018-06-15T15:03:53.967Z,44.72
2018-06-15T15:06:22.059Z,45.61
2018-06-15T15:08:50.194Z,45.38
2018-06-15T15:11:18.286Z,45.07
2018-06-15T15:13:46.420Z,45.04
2018-06-15T15:16:14.578Z,45.94
2018-06-15T15:18:42.755Z,46.00
2018-06-15T15:21:10.863Z,45.37
2018-06-15T15:23:39.140Z,45.87
2018-06-15T15:26:07.378Z,45.73
2018-06-15T15:28:35.671Z,46.80
2018-06-15T15:31:03.823Z,46.08
2018-06-15T15:33:31.917Z,47.91
2018-06-15T15:35:59.991Z,48.28
2018-06-15T15:38:28.812Z,49.13
2018-06-15T15:40:57.008Z,47.92
2018-06-15T15:43:26.247Z,47.32
2018-06-15T15:45:54.467Z,47.66
2018-06-15T15:48:22.734Z,48.16
2018-06-15T15:50:53.260Z,48.33
2018-06-15T15:53:21.388Z,47.99
2018-06-15T15:55:49.526Z,48.96
2018-06-15T15:58:18.635Z,48.32
2018-06-15T16:00:46.722Z,48.78
2018-06-15T16:03:14.968Z,48.71
2018-06-15T16:05:43.051Z,48.39
2018-06-15T16:08:11.373Z,48.15
2018-06-15T16:10:39.493Z,48.57
2018-06-15T16:13:07.674Z,49.25
2018-06-15T16:15:36.964Z,49.56
2018-06-15T16:18:05.512Z,49.08
2018-06-15T16:20:33.683Z,48.36
2018-06-15T16:23:01.888Z,49.20
2018-06-15T16:25:30.087Z,49.13
2018-06-15T16:27:58.172Z,49.66
2018-06-15T16:30:26.310Z,50.15
2018-06-15T16:32:54.403Z,49.22
2018-06-15T16:35:22.499Z,49.08
2018-06-15T16:37:50.635Z,49.92
2018-06-15T16:40:18.789Z,49.05
2018-06-15T16:42:46.892Z,50.00
2018-06-15T16:45:14.994Z,49.50
2018-06-15T16:47:43.139Z,49.87
2018-06-15T16:50:11.240Z,50.57
2018-06-15T16:52:39.380Z,50.04
2018-06-15T16:55:07.447Z,49.59
2018-06-15T16:57:35.566Z,50.14
2018-06-15T17:00:03.887Z,51.08
2018-06-15T17:02:32.033Z,50.48
2018-06-15T17:05:00.113Z,48.97
2018-06-15T17:07:28.475Z,49.04
2018-06-15T17:09:56.600Z,48.76
2018-06-15T17:12:24.966Z,48.80
2018-06-15T17:14:53.071Z,48.94
2018-06-15T17:17:21.247Z,50.04
2018-06-15T17:19:49.489Z,49.27
2018-06-15T17:22:17.611Z,49.74
2018-06-15T17:24:45.679Z,49.37
2018-06-15T17:27:13.880Z,48.91
2018-06-15T17:29:41.947Z,49.57
2018-06-15T17:32:10.015Z,49.75
2018-06-15T17:34:38.165Z,49.60
2018-06-15T17:37:06.280Z,49.65
2018-06-15T17:39:34.591Z,50.71
2018-06-15T17:42:02.842Z,49.79
2018-06-15T17:44:34.166Z,49.60
2018-06-15T17:47:21.658Z,51.15
2018-06-15T17:49:51.962Z,50.54
2018-06-15T17:52:20.171Z,50.76
2018-06-15T17:54:48.458Z,50.58
2018-06-15T17:57:16.720Z,51.55
2018-06-15T17:59:44.977Z,51.90
2018-06-15T18:02:13.040Z,52.43
2018-06-15T18:04:41.118Z,53.35
2018-06-15T18:07:09.241Z,52.69
2018-06-15T18:09:38.219Z,51.65
2018-06-15T18:12:06.314Z,52.55
2018-06-15T18:14:34.499Z,52.69
2018-06-15T18:17:02.743Z,52.82
2018-06-15T18:19:30.802Z,53.62
2018-06-15T18:21:59.530Z,53.48
2018-06-15T18:24:27.757Z,53.01
2018-06-15T18:26:56.850Z,52.44
2018-06-15T18:29:25.184Z,52.99
2018-06-15T18:31:53.278Z,53.09
2018-06-15T18:34:21.386Z,52.84
2018-06-15T18:36:49.802Z,53.43
2018-06-15T18:39:17.946Z,53.87
2018-06-15T18:41:46.155Z,54.04
2018-06-15T18:44:14.560Z,54.27
2018-06-15T18:46:42.733Z,53.53
2018-06-15T18:49:11.011Z,53.08
2018-06-15T18:51:39.111Z,53.10
2018-06-15T18:54:07.476Z,53.54
2018-06-15T18:56:35.582Z,53.54
2018-06-15T18:59:03.766Z,52.99
2018-06-15T19:01:31.929Z,53.44
2018-06-15T19:04:00.099Z,54.19
2018-06-15T19:06:28.186Z,53.59
2018-06-15T19:08:57.047Z,53.95
2018-06-15T19:11:25.450Z,54.45
2018-06-15T19:13:53.610Z,54.11
2018-06-15T19:16:21.870Z,54.06
2018-06-15T19:18:50.004Z,54.75
2018-06-15T19:21:18.081Z,55.70
2018-06-15T19:23:46.187Z,55.62
2018-06-15T19:26:14.466Z,55.46
2018-06-15T19:28:42.732Z,55.66
2018-06-15T19:31:11.094Z,56.07
2018-06-15T19:33:39.210Z,56.15
2018-06-15T19:36:07.568Z,56.65
2018-06-15T19:38:35.926Z,56.17
2018-06-15T19:41:04.136Z,56.65
2018-06-15T19:43:32.269Z,56.63
2018-06-15T19:46:00.370Z,55.91
2018-06-15T19:48:28.481Z,55.37
2018-06-15T19:50:57.254Z,57.15
2018-06-15T19:53:25.515Z,57.24
2018-06-15T19:55:54.113Z,56.39
2018-06-15T19:58:22.256Z,56.22
2018-06-15T20:00:50.391Z,57.29
2018-06-15T20:05:45.697Z,56.93
2018-06-15T20:08:13.975Z,56.55
2018-06-15T20:10:42.117Z,56.75
2018-06-15T20:13:10.215Z,57.38
2018-06-15T20:15:38.323Z,56.94
2018-06-15T20:18:06.471Z,56.89
2018-06-15T20:20:34.606Z,56.80
2018-06-15T20:23:02.692Z,57.62
2018-06-15T20:25:30.990Z,57.73
2018-06-15T20:27:59.070Z,58.42
2018-06-15T20:30:27.935Z,58.98
2018-06-15T20:32:58.202Z,59.07
2018-06-15T20:35:26.423Z,58.48
2018-06-15T20:37:55.212Z,58.41
2018-06-15T20:40:23.335Z,57.78
2018-06-15T20:42:51.399Z,57.59
2018-06-15T20:45:19.465Z,58.17
2018-06-15T20:47:47.664Z,59.31
2018-06-15T20:50:15.793Z,59.28
2018-06-15T20:52:43.855Z,59.64
2018-06-15T20:55:11.958Z,59.43
2018-06-15T20:57:40.264Z,60.16
2018-06-15T21:00:08.365Z,59.28
2018-06-15T21:02:36.445Z,60.01
2018-06-15T21:05:04.602Z,60.63
2018-06-15T21:07:32.715Z,59.61
2018-06-15T21:10:00.842Z,60.68
2018-06-15T21:12:28.926Z,61.31
2018-06-15T21:14:57.916Z,61.35
2018-06-15T21:17:26.100Z,61.30
2018-06-15T21:19:54.313Z,61.51
2018-06-15T21:22:22.714Z,60.94
2018-06-15T21:24:50.816Z,60.73
2018-06-15T21:27:18.890Z,60.84
2018-06-15T21:29:47.003Z,60.66
2018-06-15T21:32:15.646Z,61.28
2018-06-15T21:34:43.829Z,61.37
2018-06-15T21:37:12.119Z,61.13
2018-06-15T21:39:40.208Z,62.69
2018-06-15T21:42:08.315Z,62.71
2018-06-15T21:44:36.496Z,62.10
2018-06-15T21:47:04.892Z,62.33
2018-06-15T21:49:32.976Z,62.17
2018-06-15T21:52:01.183Z,62.79
2018-06-15T21:54:29.300Z,62.02
2018-06-15T21:56:58.141Z,62.34
2018-06-15T21:59:26.338Z,63.81
2018-06-15T22:01:54.671Z,64.22
2018-06-15T22:04:22.761Z,62.92
2018-06-15T22:06:50.830Z,63.29
2018-06-15T22:09:18.901Z,64.02
2018-06-15T22:11:46.983Z,63.95
2018-06-15T22:14:17.479Z,63.96
2018-06-15T22:16:50.505Z,64.14
2018-06-15T22:19:20.850Z,64.08
2018-06-15T22:21:49.270Z,64.71
2018-06-15T22:24:17.370Z,63.95
2018-06-15T22:26:45.807Z,63.84
2018-06-15T22:29:13.939Z,64.43
2018-06-15T22:31:42.004Z,64.44
2018-06-15T22:34:10.271Z,65.83
2018-06-15T22:36:38.484Z,64.62
2018-06-15T22:39:14.619Z,64.80
2018-06-15T22:41:50.006Z,66.82
2018-06-15T22:44:19.122Z,66.91
2018-06-15T22:46:47.230Z,66.03
2018-06-15T22:49:15.358Z,64.85
2018-06-15T22:51:43.835Z,64.61
2018-06-15T22:54:11.952Z,65.74
2018-06-15T22:56:40.151Z,66.08
2018-06-15T22:59:08.322Z,65.58
2018-06-15T23:01:36.551Z,65.58
2018-06-15T23:04:04.719Z,65.69
2018-06-15T23:06:32.923Z,65.63
2018-06-15T23:09:01.931Z,65.17
2018-06-15T23:11:30.031Z,65.08
2018-06-15T23:13:59.552Z,66.73
2018-06-15T23:16:28.695Z,66.40
2018-06-15T23:18:56.986Z,67.25
2018-06-15T23:21:25.137Z,66.97
2018-06-15T23:23:53.931Z,66.46
2018-06-15T23:26:22.355Z,66.02
2018-06-15T23:28:50.679Z,65.86
2018-06-15T23:31:19.948Z,68.00
2018-06-15T23:33:48.259Z,67.49
2018-06-15T23:36:16.616Z,67.08
2018-06-15T23:38:44.786Z,69.04
2018-06-15T23:41:12.905Z,67.86
2018-06-15T23:43:41.044Z,68.24
2018-06-15T23:46:09.181Z,67.76
2018-06-15T23:48:37.380Z,67.73
2018-06-15T23:51:06.429Z,67.94
2018-06-15T23:53:35.510Z,68.44
2018-06-15T23:56:03.622Z,67.15
2018-06-15T23:58:31.782Z,67.77
